Terminal Aerodrome Forecast
Issued by NWS

Home | Current Version | Previous Version | Text Only | Print | Product List | Glossary On
Versions: 1 2 3 4 5 6 7 8 9 10 11 12
000
FTUS45 KLKN 301120
TAFWMC
TAF
KWMC 301120Z 3012/3112 21010KT P6SM -SHRA VCTS SCT015 OVC030CB
      TEMPO 3012/3015 29020G30KT 2SM SHRA BKN015
     FM301500 32020G30KT 5SM -SHRA VCTS SCT015 OVC030CB
     FM301800 32028G38KT P6SM VCSH BKN040
     FM310000 32015G25KT P6SM BKN060=

USA.gov is the U.S. government's official web portal to all federal, state and local government web resources and services.